DLH245 LBWN-LBSF
Flight info
| Callsign | DLH245 |
|---|---|
| Flight time | N/A |
| Altitude | 34000 |
| Route | TOTKA T343 UMPIT |
| Aircraft | A359/H-SDE2E3GHIJ3J4J5LM1ORWXY/LB1D1 |
Departure
| Time | N/A |
|---|---|
| Airport | Varna Airport (LBWN) |
Arrival
| Time | 2026-04-27 16:27 |
|---|---|
| Airport | Sofia Airport (LBSF) |
| Time | Latitude | Longitude | Altitude | Speed | Heading |
|---|---|---|---|---|---|
| 2026-04-27 15:50 | 43.06886 | 27.21865 | 13622 ft | 383 kts | 264° |
| 2026-04-27 15:51 | 43.06590 | 27.18224 | 13913 ft | 385 kts | 264° |
| 2026-04-27 15:51 | 43.06292 | 27.14584 | 13955 ft | 386 kts | 264° |
| 2026-04-27 15:51 | 43.05992 | 27.10926 | 13952 ft | 387 kts | 264° |
| 2026-04-27 15:51 | 43.05691 | 27.07265 | 13951 ft | 388 kts | 264° |
| 2026-04-27 15:52 | 43.05388 | 27.03604 | 13940 ft | 388 kts | 264° |
| 2026-04-27 15:52 | 43.05083 | 26.99934 | 13945 ft | 388 kts | 264° |
| 2026-04-27 15:52 | 43.04777 | 26.96267 | 13951 ft | 388 kts | 264° |
| 2026-04-27 15:52 | 43.04469 | 26.92604 | 13937 ft | 389 kts | 264° |
| 2026-04-27 15:53 | 43.04159 | 26.88928 | 13939 ft | 389 kts | 264° |
| 2026-04-27 15:53 | 43.03850 | 26.85262 | 13941 ft | 389 kts | 264° |
| 2026-04-27 15:53 | 43.03539 | 26.81591 | 13938 ft | 388 kts | 264° |
| 2026-04-27 15:53 | 43.03226 | 26.77917 | 13922 ft | 389 kts | 264° |
| 2026-04-27 15:54 | 43.02913 | 26.74243 | 13932 ft | 389 kts | 264° |
| 2026-04-27 15:54 | 43.02599 | 26.70577 | 13982 ft | 389 kts | 264° |
| 2026-04-27 15:54 | 43.02283 | 26.66898 | 14171 ft | 390 kts | 264° |
| 2026-04-27 15:54 | 43.01964 | 26.63215 | 14202 ft | 389 kts | 264° |
| 2026-04-27 15:55 | 43.01644 | 26.59539 | 14190 ft | 390 kts | 264° |
| 2026-04-27 15:55 | 43.01431 | 26.57094 | 14191 ft | 391 kts | 264° |
| 2026-04-27 15:55 | 43.01000 | 26.52157 | 14180 ft | 392 kts | 264° |
| 2026-04-27 15:55 | 43.00679 | 26.48498 | 14182 ft | 392 kts | 263° |
| 2026-04-27 15:56 | 43.00351 | 26.44772 | 14183 ft | 392 kts | 264° |
| 2026-04-27 15:56 | 43.00025 | 26.41071 | 14172 ft | 392 kts | 263° |
| 2026-04-27 15:56 | 42.99697 | 26.37371 | 14184 ft | 392 kts | 263° |
| 2026-04-27 15:56 | 42.99367 | 26.33672 | 14179 ft | 392 kts | 263° |
| 2026-04-27 15:57 | 42.99036 | 26.29977 | 14184 ft | 392 kts | 263° |
| 2026-04-27 15:57 | 42.98705 | 26.26287 | 14185 ft | 392 kts | 263° |
| 2026-04-27 15:57 | 42.98371 | 26.22581 | 14158 ft | 393 kts | 263° |
| 2026-04-27 15:57 | 42.98041 | 26.18932 | 14158 ft | 393 kts | 263° |
| 2026-04-27 15:58 | 42.97708 | 26.15254 | 14175 ft | 392 kts | 264° |
| 2026-04-27 15:58 | 42.97369 | 26.11538 | 14156 ft | 391 kts | 264° |
| 2026-04-27 15:58 | 42.97032 | 26.07845 | 14164 ft | 391 kts | 264° |
| 2026-04-27 15:58 | 42.96695 | 26.04175 | 14161 ft | 391 kts | 263° |
| 2026-04-27 15:59 | 42.96354 | 26.00472 | 14155 ft | 391 kts | 263° |
| 2026-04-27 15:59 | 42.96014 | 25.96791 | 14142 ft | 391 kts | 263° |
| 2026-04-27 15:59 | 42.95674 | 25.93111 | 14142 ft | 391 kts | 263° |
| 2026-04-27 15:59 | 42.95331 | 25.89426 | 14147 ft | 391 kts | 263° |
| 2026-04-27 16:00 | 42.94988 | 25.85743 | 14132 ft | 391 kts | 263° |
| 2026-04-27 16:00 | 42.94755 | 25.83258 | 14140 ft | 392 kts | 263° |
| 2026-04-27 16:00 | 42.94296 | 25.78364 | 14147 ft | 392 kts | 263° |
| 2026-04-27 16:00 | 42.93947 | 25.74668 | 14168 ft | 394 kts | 263° |
| 2026-04-27 16:01 | 42.93594 | 25.70944 | 14569 ft | 394 kts | 264° |
| 2026-04-27 16:01 | 42.93241 | 25.67233 | 15020 ft | 395 kts | 263° |
| 2026-04-27 16:01 | 42.92888 | 25.63521 | 15439 ft | 396 kts | 263° |
| 2026-04-27 16:01 | 42.92535 | 25.59811 | 15809 ft | 398 kts | 263° |
| 2026-04-27 16:02 | 42.92170 | 25.56004 | 16215 ft | 401 kts | 263° |
| 2026-04-27 16:02 | 42.91811 | 25.52282 | 16599 ft | 402 kts | 263° |
| 2026-04-27 16:02 | 42.91443 | 25.48483 | 17006 ft | 405 kts | 263° |
| 2026-04-27 16:02 | 42.91073 | 25.44673 | 17398 ft | 407 kts | 263° |
| 2026-04-27 16:03 | 42.90701 | 25.40843 | 17792 ft | 409 kts | 263° |
| 2026-04-27 16:03 | 42.90325 | 25.36987 | 18181 ft | 411 kts | 263° |
| 2026-04-27 16:03 | 42.89946 | 25.33123 | 18569 ft | 412 kts | 263° |
| 2026-04-27 16:03 | 42.89562 | 25.29227 | 18904 ft | 414 kts | 263° |
| 2026-04-27 16:04 | 42.89177 | 25.25326 | 19207 ft | 417 kts | 262° |
| 2026-04-27 16:04 | 42.88789 | 25.21413 | 19521 ft | 419 kts | 262° |
| 2026-04-27 16:04 | 42.88396 | 25.17465 | 19850 ft | 420 kts | 262° |
| 2026-04-27 16:04 | 42.88002 | 25.13508 | 20107 ft | 421 kts | 262° |
| 2026-04-27 16:05 | 42.87606 | 25.09560 | 20162 ft | 422 kts | 262° |
| 2026-04-27 16:05 | 42.87207 | 25.05588 | 20156 ft | 422 kts | 262° |
| 2026-04-27 16:05 | 42.86806 | 25.01615 | 20164 ft | 423 kts | 262° |
| 2026-04-27 16:05 | 42.86404 | 24.97647 | 20169 ft | 423 kts | 262° |
| 2026-04-27 16:06 | 42.86000 | 24.93668 | 20161 ft | 423 kts | 262° |
| 2026-04-27 16:06 | 42.85595 | 24.89697 | 20166 ft | 423 kts | 262° |
| 2026-04-27 16:06 | 42.85187 | 24.85715 | 20159 ft | 423 kts | 262° |
| 2026-04-27 16:06 | 42.84782 | 24.81779 | 20164 ft | 423 kts | 262° |
| 2026-04-27 16:07 | 42.84370 | 24.77785 | 20164 ft | 423 kts | 262° |
| 2026-04-27 16:07 | 42.83959 | 24.73810 | 20172 ft | 423 kts | 262° |
| 2026-04-27 16:07 | 42.83548 | 24.69851 | 20166 ft | 423 kts | 262° |
| 2026-04-27 16:07 | 42.83134 | 24.65882 | 20166 ft | 423 kts | 262° |
| 2026-04-27 16:08 | 42.82719 | 24.61907 | 20168 ft | 424 kts | 262° |
| 2026-04-27 16:08 | 42.82303 | 24.57940 | 20167 ft | 424 kts | 262° |
| 2026-04-27 16:08 | 42.81885 | 24.53960 | 20168 ft | 424 kts | 262° |
| 2026-04-27 16:08 | 42.81466 | 24.49992 | 20166 ft | 424 kts | 262° |
| 2026-04-27 16:09 | 42.81044 | 24.46014 | 20169 ft | 424 kts | 262° |
| 2026-04-27 16:09 | 42.80195 | 24.38047 | 20173 ft | 425 kts | 262° |
| 2026-04-27 16:09 | 42.79770 | 24.34076 | 20167 ft | 425 kts | 262° |
| 2026-04-27 16:10 | 42.78915 | 24.26118 | 20165 ft | 425 kts | 262° |
| 2026-04-27 16:10 | 42.78035 | 24.18169 | 20169 ft | 425 kts | 260° |
| 2026-04-27 16:11 | 42.77403 | 24.14242 | 20163 ft | 425 kts | 257° |
| 2026-04-27 16:11 | 42.76224 | 24.07789 | 19765 ft | 423 kts | 256° |
| 2026-04-27 16:12 | 42.74834 | 24.00008 | 19371 ft | 422 kts | 260° |
| 2026-04-27 16:12 | 42.74676 | 23.94746 | 18962 ft | 420 kts | 274° |
| 2026-04-27 16:12 | 42.75182 | 23.86861 | 18343 ft | 417 kts | 275° |
| 2026-04-27 16:13 | 42.75445 | 23.82934 | 17983 ft | 416 kts | 275° |
| 2026-04-27 16:13 | 42.75871 | 23.76394 | 17396 ft | 412 kts | 275° |
| 2026-04-27 16:13 | 42.76118 | 23.72518 | 17050 ft | 411 kts | 275° |
| 2026-04-27 16:14 | 42.76597 | 23.64871 | 16394 ft | 407 kts | 275° |
| 2026-04-27 16:14 | 42.77073 | 23.57167 | 15734 ft | 404 kts | 276° |
| 2026-04-27 16:15 | 42.77538 | 23.49569 | 15092 ft | 401 kts | 276° |
| 2026-04-27 16:15 | 42.77991 | 23.42067 | 14453 ft | 399 kts | 276° |
| 2026-04-27 16:16 | 42.78438 | 23.34572 | 13817 ft | 396 kts | 276° |
| 2026-04-27 16:16 | 42.78872 | 23.27206 | 12956 ft | 380 kts | 276° |
| 2026-04-27 16:17 | 42.79278 | 23.20217 | 12015 ft | 360 kts | 276° |
| 2026-04-27 16:17 | 42.79657 | 23.13606 | 11128 ft | 342 kts | 276° |
| 2026-04-27 16:18 | 42.80018 | 23.07298 | 10246 ft | 326 kts | 275° |
| 2026-04-27 16:18 | 42.80361 | 23.01265 | 9319 ft | 312 kts | 275° |
| 2026-04-27 16:19 | 42.80527 | 22.98342 | 8836 ft | 306 kts | 275° |
| 2026-04-27 16:19 | 42.80685 | 22.95484 | 8386 ft | 301 kts | 275° |
| 2026-04-27 16:20 | 42.78889 | 22.88007 | 7954 ft | 266 kts | 226° |
| 2026-04-27 16:20 | 42.77404 | 22.86632 | 7979 ft | 253 kts | 206° |
| 2026-04-27 16:20 | 42.74047 | 22.86602 | 7973 ft | 257 kts | 149° |
| 2026-04-27 16:21 | 42.72864 | 22.88388 | 7740 ft | 252 kts | 114° |
| 2026-04-27 16:21 | 42.72383 | 22.95427 | 6976 ft | 252 kts | 92° |
| 2026-04-27 16:22 | 42.72270 | 22.97809 | 6975 ft | 253 kts | 92° |
| 2026-04-27 16:22 | 42.72014 | 23.02569 | 6974 ft | 252 kts | 93° |
| 2026-04-27 16:22 | 42.71871 | 23.04953 | 6901 ft | 253 kts | 93° |
| 2026-04-27 16:23 | 42.71730 | 23.07326 | 6627 ft | 251 kts | 93° |
| 2026-04-27 16:23 | 42.71445 | 23.12057 | 5868 ft | 252 kts | 92° |
| 2026-04-27 16:23 | 42.71301 | 23.14436 | 5482 ft | 253 kts | 92° |
| 2026-04-27 16:24 | 42.71158 | 23.16815 | 5126 ft | 252 kts | 93° |
| 2026-04-27 16:24 | 42.70872 | 23.21540 | 4444 ft | 248 kts | 94° |
| 2026-04-27 16:25 | 42.70592 | 23.26162 | 3793 ft | 243 kts | 94° |
| 2026-04-27 16:25 | 42.70327 | 23.30562 | 3127 ft | 213 kts | 93° |
| 2026-04-27 16:26 | 42.70111 | 23.34165 | 2646 ft | 175 kts | 94° |
| 2026-04-27 16:26 | 42.69919 | 23.37211 | 2145 ft | 149 kts | 94° |
| 2026-04-27 16:27 | 42.69767 | 23.39790 | 1784 ft | 127 kts | 94° |
| 2026-04-27 16:27 | 42.69625 | 23.42102 | 1749 ft | 48 kts | 94° |
| 2026-04-27 16:28 | 42.69458 | 23.42734 | 1750 ft | 9 kts | 175° |
| 2026-04-27 16:28 | 42.69409 | 23.42609 | 1749 ft | 10 kts | 268° |
| 2026-04-27 16:29 | 42.69415 | 23.42097 | 1746 ft | 14 kts | 226° |
| 2026-04-27 16:30 | 42.69300 | 23.42134 | 1750 ft | 16 kts | 102° |
| 2026-04-27 16:30 | 42.69330 | 23.42213 | 1754 ft | 4 kts | 319° |
| 2026-04-27 16:31 | 42.69345 | 23.42145 | 1746 ft | 0 kts | 277° |